Aviation Digital Data Service (ADDS)

Output produced by METARs form (1155 UTC 08 December 2016)
found at http://www.aviationweather.gov/adds/metars/
 
KROW 081151Z AUTO 06008KT 10SM OVC022 M02/M08 A3048 RMK AO2 SLP317 T10221083 10000 21022 51013
KROW 081051Z AUTO 04011KT 10SM OVC022 M02/M08 A3047 RMK AO2 SLP311 T10221078
KROW 080951Z AUTO 03011KT 10SM OVC022 M02/M07 A3045 RMK AO2 SLP302 T10171072
KROW 080851Z AUTO 03010KT 10SM OVC023 M01/M08 A3044 RMK AO2 SLP296 T10111078 51015
KROW 080751Z AUTO 01009KT 10SM OVC027 00/M07 A3042 RMK AO2 SLP290 T00001072
KROW 080651Z AUTO 02010KT 10SM OVC029 00/M07 A3041 RMK AO2 SLP291 T00001072 401281033
KROW 080624Z AUTO 03013KT 10SM BKN029 OVC044 00/M07 A3040 RMK AO2 T00001072
KROW 080551Z AUTO 04014G20KT 10SM OVC042 00/M07 A3039 RMK AO2 SLP289 T00001072 10094 20000 51041
KROW 080451Z AUTO 05014KT 10SM OVC041 01/M08 A3035 RMK AO2 SLP279 T00111078
KROW 080351Z AUTO 04015KT 10SM OVC039 02/M11 A3031 RMK AO2 SLP264 T00221106
KROW 080251Z 04013KT 10SM BKN032 03/M09 A3025 RMK AO2 SLP246 T00281089 53064
KROW 080241Z 04014KT 10SM OVC030 03/M09 A3024 RMK AO2 T00331089
KROW 080210Z 05012G22KT 10SM BKN025 05/M05 A3021 RMK AO2 PRESRR T00501050
KROW 080151Z 06013G21KT 10SM SCT026 05/M04 A3018 RMK AO2 WSHFT 0039 SLP221 T00501039
KROW 080059Z 10014KT 10SM CLR 08/01 A3013 RMK AO2 WSHFT 0039 PRESRR T00830011
KROW 080051Z 10017G21KT 10SM CLR 08/01 A3010 RMK AO2 SLP186 T00830011
KROW 072351Z 27006KT 10SM CLR 09/01 A3004 RMK AO2 SLP166 T00890006 10128 20039 53026
KROW 072251Z 21008KT 10SM CLR 10/01 A3001 RMK AO2 SLP150 T01000011
KROW 072151Z 19010KT 10SM CLR 11/01 A2999 RMK AO2 SLP139 T01110011
KROW 072051Z 11005KT 10SM CLR 12/01 A2996 RMK AO2 SLP130 T01220006 56011
KROW 071951Z 13005KT 10SM CLR 09/01 A2996 RMK AO2 SLP131 T00940006
KROW 071851Z 01005KT 10SM CLR 07/00 A2997 RMK AO2 SLP142 T00720000
KROW 071751Z 03007KT 10SM CLR 04/M01 A2999 RMK AO2 SLP152 T00391011 10039 21033 50016
KROW 071651Z 01008KT 10SM CLR 01/M02 A3000 RMK AO2 SLP158 T00111022
KROW 071551Z 35006KT 10SM CLR M01/M03 A2998 RMK AO2 SLP155 T10061033
KROW 071451Z 36006KT 10SM CLR M02/M04 A2994 RMK AO2 SLP142 T10171044 53018
KROW 071351Z 32005KT 10SM CLR M03/M05 A2992 RMK AO2 SLP135 T10281050
KROW 071251Z 02004KT 10SM CLR M03/M05 A2989 RMK AO2 SLP121 T10281050
KROW 081123Z 0812/0912 03011KT P6SM OVC022 
     FM081800 11007KT P6SM OVC035 
     FM082200 16006KT P6SM SCT040 
     FM090400 17006KT P6SM BKN010